sensor_id;sensor_type;location;lat;lon;timestamp;P1;durP1;ratioP1;P2;durP2;ratioP2
41861;SDS011;27537;57.134;-2.136;2024-02-14T00:00:09;8.40;;;2.30;;
41861;SDS011;27537;57.134;-2.136;2024-02-14T00:02:41;6.00;;;2.03;;
41861;SDS011;27537;57.134;-2.136;2024-02-14T00:05:09;5.60;;;2.03;;
41861;SDS011;27537;57.134;-2.136;2024-02-14T00:07:37;7.25;;;2.15;;
41861;SDS011;27537;57.134;-2.136;2024-02-14T00:10:06;5.15;;;1.95;;
41861;SDS011;27537;57.134;-2.136;2024-02-14T00:12:33;7.72;;;2.45;;
41861;SDS011;27537;57.134;-2.136;2024-02-14T00:15:02;6.30;;;2.38;;
41861;SDS011;27537;57.134;-2.136;2024-02-14T00:17:29;5.70;;;2.13;;
41861;SDS011;27537;57.134;-2.136;2024-02-14T00:19:56;6.95;;;2.30;;
41861;SDS011;27537;57.134;-2.136;2024-02-14T00:22:23;6.85;;;2.78;;
41861;SDS011;27537;57.134;-2.136;2024-02-14T00:24:50;8.98;;;2.63;;
41861;SDS011;27537;57.134;-2.136;2024-02-14T00:27:17;8.70;;;2.63;;
41861;SDS011;27537;57.134;-2.136;2024-02-14T00:29:44;8.23;;;2.60;;
41861;SDS011;27537;57.134;-2.136;2024-02-14T00:32:14;9.40;;;2.60;;
41861;SDS011;27537;57.134;-2.136;2024-02-14T00:34:41;7.30;;;2.38;;
41861;SDS011;27537;57.134;-2.136;2024-02-14T00:37:08;6.35;;;2.38;;
41861;SDS011;27537;57.134;-2.136;2024-02-14T00:39:35;9.82;;;2.72;;
41861;SDS011;27537;57.134;-2.136;2024-02-14T00:42:02;9.10;;;2.33;;
41861;SDS011;27537;57.134;-2.136;2024-02-14T00:44:29;6.95;;;2.38;;
41861;SDS011;27537;57.134;-2.136;2024-02-14T00:46:59;7.60;;;2.72;;
41861;SDS011;27537;57.134;-2.136;2024-02-14T00:49:26;6.45;;;2.17;;
41861;SDS011;27537;57.134;-2.136;2024-02-14T00:51:52;7.57;;;2.50;;
41861;SDS011;27537;57.134;-2.136;2024-02-14T00:54:20;6.43;;;2.00;;
41861;SDS011;27537;57.134;-2.136;2024-02-14T00:56:46;7.90;;;2.03;;
41861;SDS011;27537;57.134;-2.136;2024-02-14T00:59:13;5.90;;;2.00;;
41861;SDS011;27537;57.134;-2.136;2024-02-14T01:01:40;7.20;;;2.17;;
41861;SDS011;27537;57.134;-2.136;2024-02-14T01:04:07;6.15;;;1.80;;
41861;SDS011;27537;57.134;-2.136;2024-02-14T01:06:34;6.75;;;1.80;;
41861;SDS011;27537;57.134;-2.136;2024-02-14T01:09:01;7.82;;;2.05;;
41861;SDS011;27537;57.134;-2.136;2024-02-14T01:11:28;5.35;;;1.75;;
41861;SDS011;27537;57.134;-2.136;2024-02-14T01:13:55;5.10;;;1.70;;
41861;SDS011;27537;57.134;-2.136;2024-02-14T01:16:21;4.18;;;1.60;;
41861;SDS011;27537;57.134;-2.136;2024-02-14T01:18:48;7.03;;;2.30;;
41861;SDS011;27537;57.134;-2.136;2024-02-14T01:21:15;11.40;;;3.45;;
41861;SDS011;27537;57.134;-2.136;2024-02-14T01:23:42;8.88;;;2.10;;
41861;SDS011;27537;57.134;-2.136;2024-02-14T01:26:09;8.27;;;2.00;;
41861;SDS011;27537;57.134;-2.136;2024-02-14T01:28:35;4.72;;;1.50;;
41861;SDS011;27537;57.134;-2.136;2024-02-14T01:31:02;5.22;;;1.63;;
41861;SDS011;27537;57.134;-2.136;2024-02-14T01:33:29;6.68;;;1.90;;
41861;SDS011;27537;57.134;-2.136;2024-02-14T01:35:57;4.63;;;1.45;;
41861;SDS011;27537;57.134;-2.136;2024-02-14T01:38:24;4.68;;;1.50;;
41861;SDS011;27537;57.134;-2.136;2024-02-14T01:40:50;3.78;;;1.40;;
41861;SDS011;27537;57.134;-2.136;2024-02-14T01:43:19;2.20;;;1.10;;
41861;SDS011;27537;57.134;-2.136;2024-02-14T01:45:46;2.60;;;1.10;;
41861;SDS011;27537;57.134;-2.136;2024-02-14T01:48:13;3.85;;;1.40;;
41861;SDS011;27537;57.134;-2.136;2024-02-14T01:50:41;4.18;;;1.65;;
41861;SDS011;27537;57.134;-2.136;2024-02-14T01:53:08;4.47;;;1.40;;
41861;SDS011;27537;57.134;-2.136;2024-02-14T01:55:34;4.13;;;1.50;;
41861;SDS011;27537;57.134;-2.136;2024-02-14T01:58:01;6.32;;;1.58;;
41861;SDS011;27537;57.134;-2.136;2024-02-14T02:00:30;7.35;;;1.30;;
41861;SDS011;27537;57.134;-2.136;2024-02-14T02:02:58;5.13;;;1.50;;
41861;SDS011;27537;57.134;-2.136;2024-02-14T02:05:25;3.85;;;1.33;;
41861;SDS011;27537;57.134;-2.136;2024-02-14T02:07:52;3.53;;;1.58;;
41861;SDS011;27537;57.134;-2.136;2024-02-14T02:10:20;7.85;;;2.28;;
41861;SDS011;27537;57.134;-2.136;2024-02-14T02:12:48;5.63;;;1.70;;
41861;SDS011;27537;57.134;-2.136;2024-02-14T02:15:17;4.78;;;1.60;;
41861;SDS011;27537;57.134;-2.136;2024-02-14T02:17:44;6.65;;;1.75;;
41861;SDS011;27537;57.134;-2.136;2024-02-14T02:20:14;5.60;;;2.15;;
41861;SDS011;27537;57.134;-2.136;2024-02-14T02:22:46;4.53;;;1.50;;
41861;SDS011;27537;57.134;-2.136;2024-02-14T02:25:16;2.35;;;1.27;;
41861;SDS011;27537;57.134;-2.136;2024-02-14T02:27:44;4.22;;;1.50;;
41861;SDS011;27537;57.134;-2.136;2024-02-14T02:30:10;5.68;;;1.67;;
41861;SDS011;27537;57.134;-2.136;2024-02-14T02:32:41;2.72;;;1.40;;
41861;SDS011;27537;57.134;-2.136;2024-02-14T02:35:09;4.40;;;1.55;;
41861;SDS011;27537;57.134;-2.136;2024-02-14T02:37:38;3.42;;;1.42;;
41861;SDS011;27537;57.134;-2.136;2024-02-14T02:40:05;4.38;;;1.42;;
41861;SDS011;27537;57.134;-2.136;2024-02-14T02:42:33;2.88;;;1.20;;
41861;SDS011;27537;57.134;-2.136;2024-02-14T02:45:00;6.10;;;2.17;;
41861;SDS011;27537;57.134;-2.136;2024-02-14T02:47:28;4.93;;;1.55;;
41861;SDS011;27537;57.134;-2.136;2024-02-14T02:49:56;4.50;;;1.52;;
41861;SDS011;27537;57.134;-2.136;2024-02-14T02:52:27;8.60;;;1.40;;
41861;SDS011;27537;57.134;-2.136;2024-02-14T02:54:54;3.97;;;1.60;;
41861;SDS011;27537;57.134;-2.136;2024-02-14T02:57:21;7.03;;;1.75;;
41861;SDS011;27537;57.134;-2.136;2024-02-14T02:59:47;6.28;;;1.65;;
41861;SDS011;27537;57.134;-2.136;2024-02-14T03:02:15;4.28;;;1.45;;
41861;SDS011;27537;57.134;-2.136;2024-02-14T03:04:41;4.55;;;1.60;;
41861;SDS011;27537;57.134;-2.136;2024-02-14T03:07:18;3.78;;;1.40;;
41861;SDS011;27537;57.134;-2.136;2024-02-14T03:09:46;4.68;;;1.45;;
41861;SDS011;27537;57.134;-2.136;2024-02-14T03:12:12;2.47;;;1.27;;
41861;SDS011;27537;57.134;-2.136;2024-02-14T03:14:42;3.53;;;1.33;;
41861;SDS011;27537;57.134;-2.136;2024-02-14T03:17:10;5.13;;;1.40;;
41861;SDS011;27537;57.134;-2.136;2024-02-14T03:19:37;3.33;;;1.30;;
41861;SDS011;27537;57.134;-2.136;2024-02-14T03:22:05;4.28;;;1.30;;
41861;SDS011;27537;57.134;-2.136;2024-02-14T03:24:35;3.08;;;1.30;;
41861;SDS011;27537;57.134;-2.136;2024-02-14T03:27:03;3.55;;;1.40;;
41861;SDS011;27537;57.134;-2.136;2024-02-14T03:29:33;5.82;;;2.25;;
41861;SDS011;27537;57.134;-2.136;2024-02-14T03:32:02;2.63;;;1.20;;
41861;SDS011;27537;57.134;-2.136;2024-02-14T03:34:31;6.00;;;1.50;;
41861;SDS011;27537;57.134;-2.136;2024-02-14T03:37:02;8.38;;;1.50;;
41861;SDS011;27537;57.134;-2.136;2024-02-14T03:39:29;4.85;;;1.58;;
41861;SDS011;27537;57.134;-2.136;2024-02-14T03:41:57;4.70;;;1.50;;
41861;SDS011;27537;57.134;-2.136;2024-02-14T03:44:25;3.67;;;1.38;;
41861;SDS011;27537;57.134;-2.136;2024-02-14T03:46:51;3.58;;;1.50;;
41861;SDS011;27537;57.134;-2.136;2024-02-14T03:49:19;3.30;;;1.40;;
41861;SDS011;27537;57.134;-2.136;2024-02-14T03:51:47;5.00;;;1.60;;
41861;SDS011;27537;57.134;-2.136;2024-02-14T03:54:15;5.13;;;1.80;;
41861;SDS011;27537;57.134;-2.136;2024-02-14T03:56:46;4.93;;;1.30;;
41861;SDS011;27537;57.134;-2.136;2024-02-14T03:59:13;6.20;;;1.67;;
41861;SDS011;27537;57.134;-2.136;2024-02-14T04:01:44;5.30;;;1.83;;
41861;SDS011;27537;57.134;-2.136;2024-02-14T04:04:11;3.30;;;1.50;;
41861;SDS011;27537;57.134;-2.136;2024-02-14T04:06:38;6.32;;;1.60;;
41861;SDS011;27537;57.134;-2.136;2024-02-14T04:09:04;5.18;;;1.80;;
41861;SDS011;27537;57.134;-2.136;2024-02-14T04:11:31;4.03;;;1.33;;
41861;SDS011;27537;57.134;-2.136;2024-02-14T04:13:58;5.68;;;1.60;;
41861;SDS011;27537;57.134;-2.136;2024-02-14T04:16:25;4.00;;;1.45;;
41861;SDS011;27537;57.134;-2.136;2024-02-14T04:18:53;4.25;;;1.58;;
41861;SDS011;27537;57.134;-2.136;2024-02-14T04:21:21;4.65;;;1.50;;
41861;SDS011;27537;57.134;-2.136;2024-02-14T04:23:48;3.22;;;1.23;;
41861;SDS011;27537;57.134;-2.136;2024-02-14T04:26:21;10.20;;;2.28;;
41861;SDS011;27537;57.134;-2.136;2024-02-14T04:28:48;5.97;;;1.63;;
41861;SDS011;27537;57.134;-2.136;2024-02-14T04:31:14;3.90;;;1.55;;
41861;SDS011;27537;57.134;-2.136;2024-02-14T04:33:42;4.57;;;1.65;;
41861;SDS011;27537;57.134;-2.136;2024-02-14T04:36:09;2.45;;;1.30;;
41861;SDS011;27537;57.134;-2.136;2024-02-14T04:38:37;3.05;;;1.40;;
41861;SDS011;27537;57.134;-2.136;2024-02-14T04:41:04;3.47;;;1.30;;
41861;SDS011;27537;57.134;-2.136;2024-02-14T04:43:31;4.38;;;1.40;;
41861;SDS011;27537;57.134;-2.136;2024-02-14T04:45:58;4.70;;;1.33;;
41861;SDS011;27537;57.134;-2.136;2024-02-14T04:48:25;4.72;;;1.70;;
41861;SDS011;27537;57.134;-2.136;2024-02-14T04:50:52;4.88;;;1.55;;
41861;SDS011;27537;57.134;-2.136;2024-02-14T04:53:19;2.80;;;1.30;;
41861;SDS011;27537;57.134;-2.136;2024-02-14T04:55:46;3.10;;;1.30;;
41861;SDS011;27537;57.134;-2.136;2024-02-14T04:58:13;5.13;;;1.50;;
41861;SDS011;27537;57.134;-2.136;2024-02-14T05:00:39;3.03;;;1.20;;
41861;SDS011;27537;57.134;-2.136;2024-02-14T05:03:06;4.25;;;1.42;;
41861;SDS011;27537;57.134;-2.136;2024-02-14T05:05:34;5.18;;;1.27;;
41861;SDS011;27537;57.134;-2.136;2024-02-14T05:08:01;3.50;;;1.45;;
41861;SDS011;27537;57.134;-2.136;2024-02-14T05:10:29;3.83;;;1.60;;
41861;SDS011;27537;57.134;-2.136;2024-02-14T05:12:55;5.32;;;1.40;;
41861;SDS011;27537;57.134;-2.136;2024-02-14T05:15:22;3.70;;;1.52;;
41861;SDS011;27537;57.134;-2.136;2024-02-14T05:17:50;4.07;;;1.33;;
41861;SDS011;27537;57.134;-2.136;2024-02-14T05:20:17;3.63;;;1.52;;
41861;SDS011;27537;57.134;-2.136;2024-02-14T05:22:43;3.03;;;1.35;;
41861;SDS011;27537;57.134;-2.136;2024-02-14T05:25:10;4.53;;;1.50;;
41861;SDS011;27537;57.134;-2.136;2024-02-14T05:27:37;4.03;;;1.40;;
41861;SDS011;27537;57.134;-2.136;2024-02-14T05:30:04;5.88;;;1.30;;
41861;SDS011;27537;57.134;-2.136;2024-02-14T05:32:32;3.92;;;1.45;;
41861;SDS011;27537;57.134;-2.136;2024-02-14T05:34:59;4.00;;;1.45;;
41861;SDS011;27537;57.134;-2.136;2024-02-14T05:37:27;3.17;;;1.42;;
41861;SDS011;27537;57.134;-2.136;2024-02-14T05:39:54;5.45;;;2.45;;
41861;SDS011;27537;57.134;-2.136;2024-02-14T05:42:21;5.07;;;1.88;;
41861;SDS011;27537;57.134;-2.136;2024-02-14T05:44:48;4.18;;;1.40;;
41861;SDS011;27537;57.134;-2.136;2024-02-14T05:47:15;3.45;;;1.42;;
41861;SDS011;27537;57.134;-2.136;2024-02-14T05:49:41;3.22;;;1.35;;
41861;SDS011;27537;57.134;-2.136;2024-02-14T05:52:08;2.75;;;1.23;;
41861;SDS011;27537;57.134;-2.136;2024-02-14T05:54:35;4.00;;;1.73;;
41861;SDS011;27537;57.134;-2.136;2024-02-14T05:57:02;6.55;;;1.60;;
41861;SDS011;27537;57.134;-2.136;2024-02-14T05:59:29;2.92;;;1.30;;
41861;SDS011;27537;57.134;-2.136;2024-02-14T06:01:56;4.25;;;1.52;;
41861;SDS011;27537;57.134;-2.136;2024-02-14T06:04:23;2.08;;;1.00;;
41861;SDS011;27537;57.134;-2.136;2024-02-14T06:06:50;2.83;;;1.20;;
41861;SDS011;27537;57.134;-2.136;2024-02-14T06:09:16;2.45;;;1.33;;
41861;SDS011;27537;57.134;-2.136;2024-02-14T06:11:43;3.85;;;1.88;;
41861;SDS011;27537;57.134;-2.136;2024-02-14T06:14:10;3.47;;;1.55;;
41861;SDS011;27537;57.134;-2.136;2024-02-14T06:16:37;3.28;;;1.40;;
41861;SDS011;27537;57.134;-2.136;2024-02-14T06:19:04;3.50;;;1.38;;
41861;SDS011;27537;57.134;-2.136;2024-02-14T06:21:31;3.70;;;1.40;;
41861;SDS011;27537;57.134;-2.136;2024-02-14T06:23:59;5.35;;;1.70;;
41861;SDS011;27537;57.134;-2.136;2024-02-14T06:26:27;5.75;;;2.08;;
41861;SDS011;27537;57.134;-2.136;2024-02-14T06:28:54;4.18;;;1.60;;
41861;SDS011;27537;57.134;-2.136;2024-02-14T06:31:21;3.80;;;1.55;;
41861;SDS011;27537;57.134;-2.136;2024-02-14T06:33:48;5.40;;;1.63;;
41861;SDS011;27537;57.134;-2.136;2024-02-14T06:36:15;3.47;;;1.35;;
41861;SDS011;27537;57.134;-2.136;2024-02-14T06:38:42;3.95;;;1.40;;
41861;SDS011;27537;57.134;-2.136;2024-02-14T06:41:12;4.47;;;1.52;;
41861;SDS011;27537;57.134;-2.136;2024-02-14T06:43:39;6.10;;;1.50;;
41861;SDS011;27537;57.134;-2.136;2024-02-14T06:46:05;3.13;;;1.40;;
41861;SDS011;27537;57.134;-2.136;2024-02-14T06:48:32;5.45;;;1.60;;
41861;SDS011;27537;57.134;-2.136;2024-02-14T06:51:00;3.58;;;1.40;;
41861;SDS011;27537;57.134;-2.136;2024-02-14T06:53:27;2.78;;;1.40;;
41861;SDS011;27537;57.134;-2.136;2024-02-14T06:55:54;5.88;;;1.40;;
41861;SDS011;27537;57.134;-2.136;2024-02-14T06:58:22;3.63;;;1.30;;
41861;SDS011;27537;57.134;-2.136;2024-02-14T07:00:49;5.40;;;1.65;;
41861;SDS011;27537;57.134;-2.136;2024-02-14T07:03:16;3.72;;;1.45;;
41861;SDS011;27537;57.134;-2.136;2024-02-14T07:05:43;7.47;;;1.90;;
41861;SDS011;27537;57.134;-2.136;2024-02-14T07:08:10;3.40;;;1.40;;
41861;SDS011;27537;57.134;-2.136;2024-02-14T07:10:36;3.20;;;1.30;;
41861;SDS011;27537;57.134;-2.136;2024-02-14T07:13:03;3.88;;;1.38;;
41861;SDS011;27537;57.134;-2.136;2024-02-14T07:15:30;4.57;;;1.42;;
41861;SDS011;27537;57.134;-2.136;2024-02-14T07:17:57;4.22;;;1.35;;
41861;SDS011;27537;57.134;-2.136;2024-02-14T07:20:25;2.15;;;1.20;;
41861;SDS011;27537;57.134;-2.136;2024-02-14T07:22:56;5.72;;;1.60;;
41861;SDS011;27537;57.134;-2.136;2024-02-14T07:25:25;3.00;;;1.50;;
41861;SDS011;27537;57.134;-2.136;2024-02-14T07:27:52;3.45;;;1.67;;
41861;SDS011;27537;57.134;-2.136;2024-02-14T07:30:19;3.90;;;1.40;;
41861;SDS011;27537;57.134;-2.136;2024-02-14T07:32:46;8.10;;;1.80;;
41861;SDS011;27537;57.134;-2.136;2024-02-14T07:35:13;4.55;;;1.45;;
41861;SDS011;27537;57.134;-2.136;2024-02-14T07:37:40;2.90;;;1.30;;
41861;SDS011;27537;57.134;-2.136;2024-02-14T07:40:09;7.63;;;1.80;;
41861;SDS011;27537;57.134;-2.136;2024-02-14T07:42:36;4.95;;;1.67;;
41861;SDS011;27537;57.134;-2.136;2024-02-14T07:45:03;2.97;;;1.38;;
41861;SDS011;27537;57.134;-2.136;2024-02-14T07:47:30;3.53;;;1.38;;
41861;SDS011;27537;57.134;-2.136;2024-02-14T07:49:57;3.45;;;1.40;;
41861;SDS011;27537;57.134;-2.136;2024-02-14T07:52:26;3.63;;;1.50;;
41861;SDS011;27537;57.134;-2.136;2024-02-14T07:54:53;3.40;;;1.25;;
41861;SDS011;27537;57.134;-2.136;2024-02-14T07:57:22;6.18;;;1.60;;
41861;SDS011;27537;57.134;-2.136;2024-02-14T07:59:50;4.78;;;1.50;;
41861;SDS011;27537;57.134;-2.136;2024-02-14T08:02:17;4.25;;;1.73;;
41861;SDS011;27537;57.134;-2.136;2024-02-14T08:04:45;5.03;;;1.67;;
41861;SDS011;27537;57.134;-2.136;2024-02-14T08:07:12;4.47;;;1.65;;
41861;SDS011;27537;57.134;-2.136;2024-02-14T08:09:39;7.40;;;1.55;;
41861;SDS011;27537;57.134;-2.136;2024-02-14T08:12:06;3.47;;;1.45;;
41861;SDS011;27537;57.134;-2.136;2024-02-14T08:14:33;4.07;;;1.40;;
41861;SDS011;27537;57.134;-2.136;2024-02-14T08:17:00;8.23;;;2.53;;
41861;SDS011;27537;57.134;-2.136;2024-02-14T08:19:26;4.53;;;1.58;;
41861;SDS011;27537;57.134;-2.136;2024-02-14T08:21:53;3.83;;;1.45;;
41861;SDS011;27537;57.134;-2.136;2024-02-14T08:24:27;7.25;;;1.80;;
41861;SDS011;27537;57.134;-2.136;2024-02-14T08:26:54;7.93;;;2.30;;
41861;SDS011;27537;57.134;-2.136;2024-02-14T08:29:21;6.97;;;1.95;;
41861;SDS011;27537;57.134;-2.136;2024-02-14T08:31:48;5.47;;;1.90;;
41861;SDS011;27537;57.134;-2.136;2024-02-14T08:34:15;6.95;;;1.83;;
41861;SDS011;27537;57.134;-2.136;2024-02-14T08:36:43;4.00;;;1.63;;
41861;SDS011;27537;57.134;-2.136;2024-02-14T08:39:10;21.67;;;16.73;;
41861;SDS011;27537;57.134;-2.136;2024-02-14T08:41:37;10.75;;;4.43;;
41861;SDS011;27537;57.134;-2.136;2024-02-14T08:44:05;5.78;;;2.80;;
41861;SDS011;27537;57.134;-2.136;2024-02-14T08:46:31;5.03;;;2.17;;
41861;SDS011;27537;57.134;-2.136;2024-02-14T08:49:00;6.30;;;2.15;;
41861;SDS011;27537;57.134;-2.136;2024-02-14T08:51:29;5.90;;;2.30;;
41861;SDS011;27537;57.134;-2.136;2024-02-14T08:53:56;6.70;;;1.80;;
41861;SDS011;27537;57.134;-2.136;2024-02-14T08:56:26;6.85;;;1.98;;
41861;SDS011;27537;57.134;-2.136;2024-02-14T08:58:52;4.40;;;1.70;;
41861;SDS011;27537;57.134;-2.136;2024-02-14T09:01:19;5.07;;;1.95;;
41861;SDS011;27537;57.134;-2.136;2024-02-14T09:03:47;4.68;;;1.50;;
41861;SDS011;27537;57.134;-2.136;2024-02-14T09:06:16;3.17;;;1.40;;
41861;SDS011;27537;57.134;-2.136;2024-02-14T09:08:47;4.88;;;1.40;;
41861;SDS011;27537;57.134;-2.136;2024-02-14T09:11:14;2.85;;;1.38;;
41861;SDS011;27537;57.134;-2.136;2024-02-14T09:13:41;3.95;;;1.40;;
41861;SDS011;27537;57.134;-2.136;2024-02-14T09:16:08;3.50;;;1.35;;
41861;SDS011;27537;57.134;-2.136;2024-02-14T09:18:35;3.17;;;1.20;;
41861;SDS011;27537;57.134;-2.136;2024-02-14T09:21:03;2.13;;;1.20;;
41861;SDS011;27537;57.134;-2.136;2024-02-14T09:23:32;4.53;;;1.65;;
41861;SDS011;27537;57.134;-2.136;2024-02-14T09:25:59;4.22;;;1.55;;
41861;SDS011;27537;57.134;-2.136;2024-02-14T09:28:26;2.33;;;1.10;;
41861;SDS011;27537;57.134;-2.136;2024-02-14T09:30:53;4.03;;;1.20;;
41861;SDS011;27537;57.134;-2.136;2024-02-14T09:33:21;3.03;;;1.13;;
41861;SDS011;27537;57.134;-2.136;2024-02-14T09:35:48;3.90;;;1.33;;
41861;SDS011;27537;57.134;-2.136;2024-02-14T09:38:16;2.70;;;1.10;;
41861;SDS011;27537;57.134;-2.136;2024-02-14T09:40:43;3.40;;;1.40;;
41861;SDS011;27537;57.134;-2.136;2024-02-14T09:43:14;3.67;;;1.10;;
41861;SDS011;27537;57.134;-2.136;2024-02-14T09:45:51;3.72;;;1.30;;
41861;SDS011;27537;57.134;-2.136;2024-02-14T09:48:19;2.97;;;1.30;;
41861;SDS011;27537;57.134;-2.136;2024-02-14T09:50:48;2.15;;;1.05;;
41861;SDS011;27537;57.134;-2.136;2024-02-14T09:53:15;8.48;;;2.78;;
41861;SDS011;27537;57.134;-2.136;2024-02-14T09:55:45;4.72;;;1.40;;
41861;SDS011;27537;57.134;-2.136;2024-02-14T09:58:12;3.65;;;1.30;;
41861;SDS011;27537;57.134;-2.136;2024-02-14T10:00:39;3.67;;;1.40;;
41861;SDS011;27537;57.134;-2.136;2024-02-14T10:03:08;5.20;;;1.65;;
41861;SDS011;27537;57.134;-2.136;2024-02-14T10:05:35;5.80;;;1.95;;
41861;SDS011;27537;57.134;-2.136;2024-02-14T10:08:02;6.78;;;2.00;;
41861;SDS011;27537;57.134;-2.136;2024-02-14T10:10:31;7.97;;;2.90;;
41861;SDS011;27537;57.134;-2.136;2024-02-14T10:13:03;6.03;;;2.20;;
41861;SDS011;27537;57.134;-2.136;2024-02-14T10:15:31;7.88;;;2.20;;
41861;SDS011;27537;57.134;-2.136;2024-02-14T10:17:59;7.72;;;2.38;;
41861;SDS011;27537;57.134;-2.136;2024-02-14T10:20:27;8.65;;;2.90;;
41861;SDS011;27537;57.134;-2.136;2024-02-14T10:23:02;8.00;;;2.17;;
41861;SDS011;27537;57.134;-2.136;2024-02-14T10:25:30;8.25;;;2.40;;
41861;SDS011;27537;57.134;-2.136;2024-02-14T10:28:03;8.48;;;2.70;;
41861;SDS011;27537;57.134;-2.136;2024-02-14T10:30:31;6.50;;;2.63;;
41861;SDS011;27537;57.134;-2.136;2024-02-14T10:32:58;7.97;;;2.28;;
41861;SDS011;27537;57.134;-2.136;2024-02-14T10:35:39;9.63;;;2.88;;
41861;SDS011;27537;57.134;-2.136;2024-02-14T10:38:08;7.90;;;2.45;;
41861;SDS011;27537;57.134;-2.136;2024-02-14T10:40:36;6.70;;;2.25;;
41861;SDS011;27537;57.134;-2.136;2024-02-14T10:43:07;8.63;;;2.33;;
41861;SDS011;27537;57.134;-2.136;2024-02-14T10:45:37;9.05;;;2.63;;
41861;SDS011;27537;57.134;-2.136;2024-02-14T10:48:06;7.18;;;2.58;;
41861;SDS011;27537;57.134;-2.136;2024-02-14T10:50:38;8.10;;;2.50;;
41861;SDS011;27537;57.134;-2.136;2024-02-14T10:53:09;8.98;;;3.17;;
41861;SDS011;27537;57.134;-2.136;2024-02-14T10:55:40;9.23;;;4.10;;
41861;SDS011;27537;57.134;-2.136;2024-02-14T10:58:09;11.88;;;4.47;;
41861;SDS011;27537;57.134;-2.136;2024-02-14T11:00:37;8.77;;;3.30;;
41861;SDS011;27537;57.134;-2.136;2024-02-14T11:03:04;16.30;;;4.60;;
41861;SDS011;27537;57.134;-2.136;2024-02-14T11:05:42;8.98;;;2.97;;
41861;SDS011;27537;57.134;-2.136;2024-02-14T11:08:19;9.18;;;2.75;;
41861;SDS011;27537;57.134;-2.136;2024-02-14T11:10:54;13.13;;;4.43;;
41861;SDS011;27537;57.134;-2.136;2024-02-14T11:13:28;8.50;;;3.33;;
41861;SDS011;27537;57.134;-2.136;2024-02-14T11:16:02;12.55;;;3.60;;
41861;SDS011;27537;57.134;-2.136;2024-02-14T11:18:31;11.07;;;4.03;;
41861;SDS011;27537;57.134;-2.136;2024-02-14T11:21:03;10.50;;;3.97;;
41861;SDS011;27537;57.134;-2.136;2024-02-14T11:23:32;16.70;;;8.65;;
41861;SDS011;27537;57.134;-2.136;2024-02-14T11:26:15;15.95;;;6.88;;
41861;SDS011;27537;57.134;-2.136;2024-02-14T11:28:41;13.50;;;7.78;;
41861;SDS011;27537;57.134;-2.136;2024-02-14T11:31:08;14.13;;;6.70;;
41861;SDS011;27537;57.134;-2.136;2024-02-14T11:33:36;15.50;;;7.05;;
41861;SDS011;27537;57.134;-2.136;2024-02-14T11:36:09;13.27;;;6.15;;
41861;SDS011;27537;57.134;-2.136;2024-02-14T11:38:37;19.98;;;5.50;;
41861;SDS011;27537;57.134;-2.136;2024-02-14T11:41:06;12.13;;;5.40;;
41861;SDS011;27537;57.134;-2.136;2024-02-14T11:43:33;12.25;;;5.10;;
41861;SDS011;27537;57.134;-2.136;2024-02-14T11:46:00;10.85;;;4.45;;
41861;SDS011;27537;57.134;-2.136;2024-02-14T11:48:29;9.00;;;4.25;;
41861;SDS011;27537;57.134;-2.136;2024-02-14T11:50:56;11.55;;;4.07;;
41861;SDS011;27537;57.134;-2.136;2024-02-14T11:53:23;10.57;;;4.03;;
41861;SDS011;27537;57.134;-2.136;2024-02-14T11:55:50;9.63;;;3.97;;
41861;SDS011;27537;57.134;-2.136;2024-02-14T11:58:17;10.35;;;4.10;;
41861;SDS011;27537;57.134;-2.136;2024-02-14T12:00:44;9.82;;;4.32;;
41861;SDS011;27537;57.134;-2.136;2024-02-14T12:05:43;9.25;;;3.60;;
41861;SDS011;27537;57.134;-2.136;2024-02-14T12:08:14;9.18;;;3.72;;
41861;SDS011;27537;57.134;-2.136;2024-02-14T12:10:42;13.25;;;4.53;;
41861;SDS011;27537;57.134;-2.136;2024-02-14T12:15:38;11.07;;;3.85;;
41861;SDS011;27537;57.134;-2.136;2024-02-14T12:18:06;9.60;;;3.03;;
41861;SDS011;27537;57.134;-2.136;2024-02-14T12:20:34;8.88;;;2.97;;
41861;SDS011;27537;57.134;-2.136;2024-02-14T12:23:02;8.27;;;3.20;;
41861;SDS011;27537;57.134;-2.136;2024-02-14T12:25:30;7.68;;;2.83;;
41861;SDS011;27537;57.134;-2.136;2024-02-14T12:27:57;10.77;;;3.88;;
41861;SDS011;27537;57.134;-2.136;2024-02-14T12:30:42;11.52;;;4.00;;
41861;SDS011;27537;57.134;-2.136;2024-02-14T12:33:24;9.13;;;3.47;;
41861;SDS011;27537;57.134;-2.136;2024-02-14T12:35:53;10.32;;;3.70;;
41861;SDS011;27537;57.134;-2.136;2024-02-14T12:38:21;10.85;;;3.83;;
41861;SDS011;27537;57.134;-2.136;2024-02-14T12:40:49;10.70;;;3.58;;
41861;SDS011;27537;57.134;-2.136;2024-02-14T12:43:20;8.30;;;3.42;;
41861;SDS011;27537;57.134;-2.136;2024-02-14T12:45:47;10.60;;;4.43;;
41861;SDS011;27537;57.134;-2.136;2024-02-14T12:48:21;11.10;;;4.35;;
41861;SDS011;27537;57.134;-2.136;2024-02-14T12:50:53;12.18;;;5.63;;
41861;SDS011;27537;57.134;-2.136;2024-02-14T12:53:21;11.25;;;4.45;;
41861;SDS011;27537;57.134;-2.136;2024-02-14T12:55:48;12.15;;;4.25;;
41861;SDS011;27537;57.134;-2.136;2024-02-14T12:58:15;11.45;;;3.75;;
41861;SDS011;27537;57.134;-2.136;2024-02-14T13:00:42;11.20;;;4.00;;
41861;SDS011;27537;57.134;-2.136;2024-02-14T13:03:11;10.52;;;3.72;;
41861;SDS011;27537;57.134;-2.136;2024-02-14T13:05:42;9.60;;;4.35;;
41861;SDS011;27537;57.134;-2.136;2024-02-14T13:08:08;8.07;;;2.75;;
41861;SDS011;27537;57.134;-2.136;2024-02-14T13:10:37;8.63;;;2.92;;
41861;SDS011;27537;57.134;-2.136;2024-02-14T13:13:04;7.18;;;2.60;;
41861;SDS011;27537;57.134;-2.136;2024-02-14T13:15:31;7.25;;;2.42;;
41861;SDS011;27537;57.134;-2.136;2024-02-14T13:17:57;7.55;;;2.60;;
41861;SDS011;27537;57.134;-2.136;2024-02-14T13:20:26;7.68;;;2.58;;
41861;SDS011;27537;57.134;-2.136;2024-02-14T13:22:53;7.40;;;2.63;;
41861;SDS011;27537;57.134;-2.136;2024-02-14T13:25:19;6.20;;;2.60;;
41861;SDS011;27537;57.134;-2.136;2024-02-14T13:27:46;7.28;;;2.47;;
41861;SDS011;27537;57.134;-2.136;2024-02-14T13:30:13;7.75;;;2.55;;
41861;SDS011;27537;57.134;-2.136;2024-02-14T13:32:40;8.48;;;2.90;;
41861;SDS011;27537;57.134;-2.136;2024-02-14T13:35:07;8.63;;;3.10;;
41861;SDS011;27537;57.134;-2.136;2024-02-14T13:37:34;8.25;;;2.80;;
41861;SDS011;27537;57.134;-2.136;2024-02-14T13:40:02;7.93;;;3.10;;
41861;SDS011;27537;57.134;-2.136;2024-02-14T13:42:30;7.95;;;2.65;;
41861;SDS011;27537;57.134;-2.136;2024-02-14T13:44:57;8.00;;;2.92;;
41861;SDS011;27537;57.134;-2.136;2024-02-14T13:47:24;7.97;;;2.92;;
41861;SDS011;27537;57.134;-2.136;2024-02-14T13:49:51;10.63;;;3.05;;
41861;SDS011;27537;57.134;-2.136;2024-02-14T13:52:18;8.52;;;3.13;;
41861;SDS011;27537;57.134;-2.136;2024-02-14T13:54:46;10.13;;;4.07;;
41861;SDS011;27537;57.134;-2.136;2024-02-14T13:57:13;8.63;;;3.47;;
41861;SDS011;27537;57.134;-2.136;2024-02-14T13:59:40;9.77;;;3.33;;
41861;SDS011;27537;57.134;-2.136;2024-02-14T14:02:08;9.95;;;3.50;;
41861;SDS011;27537;57.134;-2.136;2024-02-14T14:04:35;12.20;;;4.30;;
41861;SDS011;27537;57.134;-2.136;2024-02-14T14:07:02;11.55;;;3.75;;
41861;SDS011;27537;57.134;-2.136;2024-02-14T14:09:31;12.23;;;3.78;;
41861;SDS011;27537;57.134;-2.136;2024-02-14T14:11:59;13.60;;;3.85;;
41861;SDS011;27537;57.134;-2.136;2024-02-14T14:14:26;9.80;;;3.58;;
41861;SDS011;27537;57.134;-2.136;2024-02-14T14:16:53;9.68;;;3.67;;
41861;SDS011;27537;57.134;-2.136;2024-02-14T14:19:20;8.90;;;3.63;;
41861;SDS011;27537;57.134;-2.136;2024-02-14T14:21:47;10.57;;;3.70;;
41861;SDS011;27537;57.134;-2.136;2024-02-14T14:24:14;9.10;;;3.25;;
41861;SDS011;27537;57.134;-2.136;2024-02-14T14:26:42;11.35;;;3.42;;
41861;SDS011;27537;57.134;-2.136;2024-02-14T14:29:09;8.77;;;3.72;;
41861;SDS011;27537;57.134;-2.136;2024-02-14T14:31:35;10.35;;;3.00;;
41861;SDS011;27537;57.134;-2.136;2024-02-14T14:34:02;8.77;;;3.53;;
41861;SDS011;27537;57.134;-2.136;2024-02-14T14:36:30;11.18;;;3.08;;
41861;SDS011;27537;57.134;-2.136;2024-02-14T14:38:56;10.00;;;3.88;;
41861;SDS011;27537;57.134;-2.136;2024-02-14T14:41:24;11.60;;;4.00;;